sensor_id;sensor_type;location;lat;lon;timestamp;P1;durP1;ratioP1;P2;durP2;ratioP2
34952;SDS011;21164;54.378;10.202;2022-08-07T00:00:21;7.55;;;4.55;;
34952;SDS011;21164;54.378;10.202;2022-08-07T00:02:46;10.18;;;5.07;;
34952;SDS011;21164;54.378;10.202;2022-08-07T00:05:12;8.90;;;4.57;;
34952;SDS011;21164;54.378;10.202;2022-08-07T00:07:38;9.57;;;4.10;;
34952;SDS011;21164;54.378;10.202;2022-08-07T00:10:04;9.40;;;4.28;;
34952;SDS011;21164;54.378;10.202;2022-08-07T00:14:56;5.32;;;3.42;;
34952;SDS011;21164;54.378;10.202;2022-08-07T00:19:47;7.68;;;4.03;;
34952;SDS011;21164;54.378;10.202;2022-08-07T00:22:13;8.80;;;3.75;;
34952;SDS011;21164;54.378;10.202;2022-08-07T00:24:39;10.00;;;4.80;;
34952;SDS011;21164;54.378;10.202;2022-08-07T00:27:05;7.30;;;4.18;;
34952;SDS011;21164;54.378;10.202;2022-08-07T00:29:31;8.52;;;4.50;;
34952;SDS011;21164;54.378;10.202;2022-08-07T00:31:57;10.98;;;3.95;;
34952;SDS011;21164;54.378;10.202;2022-08-07T00:34:24;6.55;;;3.80;;
34952;SDS011;21164;54.378;10.202;2022-08-07T00:36:50;5.25;;;3.65;;
34952;SDS011;21164;54.378;10.202;2022-08-07T00:39:16;7.82;;;4.20;;
34952;SDS011;21164;54.378;10.202;2022-08-07T00:41:47;6.65;;;4.07;;
34952;SDS011;21164;54.378;10.202;2022-08-07T00:44:17;6.95;;;4.10;;
34952;SDS011;21164;54.378;10.202;2022-08-07T00:46:43;10.93;;;5.10;;
34952;SDS011;21164;54.378;10.202;2022-08-07T00:49:09;6.95;;;3.80;;
34952;SDS011;21164;54.378;10.202;2022-08-07T00:51:35;8.23;;;4.88;;
34952;SDS011;21164;54.378;10.202;2022-08-07T00:54:00;7.00;;;4.05;;
34952;SDS011;21164;54.378;10.202;2022-08-07T00:56:26;6.40;;;4.22;;
34952;SDS011;21164;54.378;10.202;2022-08-07T00:58:53;6.80;;;4.50;;
34952;SDS011;21164;54.378;10.202;2022-08-07T01:01:19;7.65;;;4.47;;
34952;SDS011;21164;54.378;10.202;2022-08-07T01:03:47;8.30;;;4.78;;
34952;SDS011;21164;54.378;10.202;2022-08-07T01:06:14;6.57;;;4.55;;
34952;SDS011;21164;54.378;10.202;2022-08-07T01:08:40;9.63;;;4.85;;
34952;SDS011;21164;54.378;10.202;2022-08-07T01:11:06;8.27;;;4.88;;
34952;SDS011;21164;54.378;10.202;2022-08-07T01:15:58;6.88;;;4.50;;
34952;SDS011;21164;54.378;10.202;2022-08-07T01:18:24;7.28;;;4.72;;
34952;SDS011;21164;54.378;10.202;2022-08-07T01:21:07;6.50;;;4.15;;
34952;SDS011;21164;54.378;10.202;2022-08-07T01:23:42;7.70;;;4.68;;
34952;SDS011;21164;54.378;10.202;2022-08-07T01:26:10;6.63;;;4.72;;
34952;SDS011;21164;54.378;10.202;2022-08-07T01:28:42;9.82;;;4.95;;
34952;SDS011;21164;54.378;10.202;2022-08-07T01:31:09;7.82;;;5.03;;
34952;SDS011;21164;54.378;10.202;2022-08-07T01:33:35;9.55;;;5.13;;
34952;SDS011;21164;54.378;10.202;2022-08-07T01:36:01;7.93;;;4.82;;
34952;SDS011;21164;54.378;10.202;2022-08-07T01:38:28;8.88;;;5.30;;
34952;SDS011;21164;54.378;10.202;2022-08-07T01:43:22;7.72;;;4.85;;
34952;SDS011;21164;54.378;10.202;2022-08-07T01:45:48;8.77;;;4.93;;
34952;SDS011;21164;54.378;10.202;2022-08-07T01:48:14;6.82;;;5.18;;
34952;SDS011;21164;54.378;10.202;2022-08-07T01:50:40;8.40;;;4.65;;
34952;SDS011;21164;54.378;10.202;2022-08-07T01:53:07;8.82;;;5.13;;
34952;SDS011;21164;54.378;10.202;2022-08-07T01:55:38;11.00;;;6.43;;
34952;SDS011;21164;54.378;10.202;2022-08-07T01:58:09;10.70;;;5.38;;
34952;SDS011;21164;54.378;10.202;2022-08-07T02:00:38;8.30;;;4.95;;
34952;SDS011;21164;54.378;10.202;2022-08-07T02:03:10;8.07;;;5.10;;
34952;SDS011;21164;54.378;10.202;2022-08-07T02:05:40;9.80;;;5.25;;
34952;SDS011;21164;54.378;10.202;2022-08-07T02:08:15;8.80;;;5.68;;
34952;SDS011;21164;54.378;10.202;2022-08-07T02:10:43;8.23;;;5.75;;
34952;SDS011;21164;54.378;10.202;2022-08-07T02:13:13;9.60;;;5.47;;
34952;SDS011;21164;54.378;10.202;2022-08-07T02:15:40;9.23;;;5.32;;
34952;SDS011;21164;54.378;10.202;2022-08-07T02:20:34;10.65;;;6.00;;
34952;SDS011;21164;54.378;10.202;2022-08-07T02:23:01;11.07;;;6.15;;
34952;SDS011;21164;54.378;10.202;2022-08-07T02:25:31;11.90;;;5.30;;
34952;SDS011;21164;54.378;10.202;2022-08-07T02:28:00;9.27;;;5.18;;
34952;SDS011;21164;54.378;10.202;2022-08-07T02:30:26;9.68;;;5.05;;
34952;SDS011;21164;54.378;10.202;2022-08-07T02:32:53;10.32;;;5.57;;
34952;SDS011;21164;54.378;10.202;2022-08-07T02:35:21;9.02;;;5.50;;
34952;SDS011;21164;54.378;10.202;2022-08-07T02:37:48;10.63;;;5.68;;
34952;SDS011;21164;54.378;10.202;2022-08-07T02:40:16;10.75;;;6.25;;
34952;SDS011;21164;54.378;10.202;2022-08-07T02:45:09;10.75;;;5.88;;
34952;SDS011;21164;54.378;10.202;2022-08-07T02:47:40;13.68;;;6.15;;
34952;SDS011;21164;54.378;10.202;2022-08-07T02:50:06;10.05;;;5.50;;
34952;SDS011;21164;54.378;10.202;2022-08-07T02:52:33;8.15;;;5.65;;
34952;SDS011;21164;54.378;10.202;2022-08-07T02:55:04;9.77;;;5.50;;
34952;SDS011;21164;54.378;10.202;2022-08-07T02:57:35;9.20;;;5.25;;
34952;SDS011;21164;54.378;10.202;2022-08-07T03:00:04;7.95;;;5.43;;
34952;SDS011;21164;54.378;10.202;2022-08-07T03:02:31;11.30;;;6.20;;
34952;SDS011;21164;54.378;10.202;2022-08-07T03:04:59;8.30;;;5.30;;
34952;SDS011;21164;54.378;10.202;2022-08-07T03:07:26;9.70;;;5.95;;
34952;SDS011;21164;54.378;10.202;2022-08-07T03:09:53;11.80;;;6.15;;
34952;SDS011;21164;54.378;10.202;2022-08-07T03:12:19;10.85;;;5.55;;
34952;SDS011;21164;54.378;10.202;2022-08-07T03:14:46;7.63;;;5.78;;
34952;SDS011;21164;54.378;10.202;2022-08-07T03:17:15;9.18;;;5.97;;
34952;SDS011;21164;54.378;10.202;2022-08-07T03:19:41;11.80;;;6.13;;
34952;SDS011;21164;54.378;10.202;2022-08-07T03:22:07;9.70;;;5.80;;
34952;SDS011;21164;54.378;10.202;2022-08-07T03:24:33;7.15;;;5.65;;
34952;SDS011;21164;54.378;10.202;2022-08-07T03:27:01;10.27;;;6.07;;
34952;SDS011;21164;54.378;10.202;2022-08-07T03:29:31;9.13;;;6.13;;
34952;SDS011;21164;54.378;10.202;2022-08-07T03:32:02;8.80;;;5.43;;
34952;SDS011;21164;54.378;10.202;2022-08-07T03:34:32;9.30;;;5.93;;
34952;SDS011;21164;54.378;10.202;2022-08-07T03:37:00;9.38;;;5.43;;
34952;SDS011;21164;54.378;10.202;2022-08-07T03:39:28;7.70;;;5.72;;
34952;SDS011;21164;54.378;10.202;2022-08-07T03:41:57;9.73;;;5.70;;
34952;SDS011;21164;54.378;10.202;2022-08-07T03:44:23;9.18;;;5.78;;
34952;SDS011;21164;54.378;10.202;2022-08-07T03:46:49;10.13;;;5.50;;
34952;SDS011;21164;54.378;10.202;2022-08-07T03:49:15;9.07;;;5.55;;
34952;SDS011;21164;54.378;10.202;2022-08-07T03:51:41;12.18;;;5.47;;
34952;SDS011;21164;54.378;10.202;2022-08-07T03:54:07;10.60;;;6.35;;
34952;SDS011;21164;54.378;10.202;2022-08-07T03:56:32;9.38;;;5.75;;
34952;SDS011;21164;54.378;10.202;2022-08-07T03:59:01;10.65;;;6.03;;
34952;SDS011;21164;54.378;10.202;2022-08-07T04:01:28;9.40;;;5.72;;
34952;SDS011;21164;54.378;10.202;2022-08-07T04:03:55;9.93;;;4.90;;
34952;SDS011;21164;54.378;10.202;2022-08-07T04:06:21;11.18;;;5.72;;
34952;SDS011;21164;54.378;10.202;2022-08-07T04:08:47;11.25;;;5.68;;
34952;SDS011;21164;54.378;10.202;2022-08-07T04:11:13;10.02;;;5.72;;
34952;SDS011;21164;54.378;10.202;2022-08-07T04:13:39;10.13;;;5.63;;
34952;SDS011;21164;54.378;10.202;2022-08-07T04:16:05;9.02;;;5.18;;
34952;SDS011;21164;54.378;10.202;2022-08-07T04:18:31;10.88;;;5.78;;
34952;SDS011;21164;54.378;10.202;2022-08-07T04:20:57;8.15;;;5.22;;
34952;SDS011;21164;54.378;10.202;2022-08-07T04:23:23;11.30;;;5.78;;
34952;SDS011;21164;54.378;10.202;2022-08-07T04:25:49;8.15;;;5.65;;
34952;SDS011;21164;54.378;10.202;2022-08-07T04:28:16;9.27;;;5.55;;
34952;SDS011;21164;54.378;10.202;2022-08-07T04:30:45;8.55;;;5.38;;
34952;SDS011;21164;54.378;10.202;2022-08-07T04:33:12;9.93;;;5.65;;
34952;SDS011;21164;54.378;10.202;2022-08-07T04:35:39;9.82;;;5.97;;
34952;SDS011;21164;54.378;10.202;2022-08-07T04:38:08;9.85;;;5.47;;
34952;SDS011;21164;54.378;10.202;2022-08-07T04:40:36;10.20;;;5.50;;
34952;SDS011;21164;54.378;10.202;2022-08-07T04:43:04;9.07;;;5.85;;
34952;SDS011;21164;54.378;10.202;2022-08-07T04:45:36;9.10;;;5.75;;
34952;SDS011;21164;54.378;10.202;2022-08-07T04:48:11;10.75;;;6.00;;
34952;SDS011;21164;54.378;10.202;2022-08-07T04:51:05;10.00;;;6.00;;
34952;SDS011;21164;54.378;10.202;2022-08-07T04:53:49;10.02;;;6.90;;
34952;SDS011;21164;54.378;10.202;2022-08-07T04:56:25;10.10;;;7.00;;
34952;SDS011;21164;54.378;10.202;2022-08-07T04:59:01;10.45;;;7.00;;
34952;SDS011;21164;54.378;10.202;2022-08-07T05:12:34;9.55;;;6.53;;
34952;SDS011;21164;54.378;10.202;2022-08-07T05:15:07;10.63;;;6.53;;
34952;SDS011;21164;54.378;10.202;2022-08-07T05:17:42;8.73;;;6.80;;
34952;SDS011;21164;54.378;10.202;2022-08-07T05:20:13;9.35;;;6.07;;
34952;SDS011;21164;54.378;10.202;2022-08-07T05:22:42;9.55;;;6.40;;
34952;SDS011;21164;54.378;10.202;2022-08-07T05:25:10;11.68;;;5.75;;
34952;SDS011;21164;54.378;10.202;2022-08-07T05:27:38;9.60;;;5.80;;
34952;SDS011;21164;54.378;10.202;2022-08-07T05:30:06;7.97;;;5.53;;
34952;SDS011;21164;54.378;10.202;2022-08-07T05:32:32;7.35;;;5.32;;
34952;SDS011;21164;54.378;10.202;2022-08-07T05:37:23;9.77;;;5.90;;
34952;SDS011;21164;54.378;10.202;2022-08-07T05:39:49;8.20;;;5.40;;
34952;SDS011;21164;54.378;10.202;2022-08-07T05:42:16;8.38;;;5.28;;
34952;SDS011;21164;54.378;10.202;2022-08-07T05:44:42;10.85;;;6.00;;
34952;SDS011;21164;54.378;10.202;2022-08-07T05:47:07;9.95;;;6.18;;
34952;SDS011;21164;54.378;10.202;2022-08-07T05:49:34;9.00;;;5.28;;
34952;SDS011;21164;54.378;10.202;2022-08-07T05:52:01;9.80;;;5.07;;
34952;SDS011;21164;54.378;10.202;2022-08-07T05:54:28;9.60;;;5.97;;
34952;SDS011;21164;54.378;10.202;2022-08-07T05:56:53;9.60;;;6.00;;
34952;SDS011;21164;54.378;10.202;2022-08-07T05:59:20;8.75;;;5.40;;
34952;SDS011;21164;54.378;10.202;2022-08-07T06:01:47;9.85;;;5.85;;
34952;SDS011;21164;54.378;10.202;2022-08-07T06:04:14;8.60;;;5.22;;
34952;SDS011;21164;54.378;10.202;2022-08-07T06:06:42;7.90;;;5.50;;
34952;SDS011;21164;54.378;10.202;2022-08-07T06:11:34;9.30;;;5.57;;
34952;SDS011;21164;54.378;10.202;2022-08-07T06:14:00;9.93;;;6.18;;
34952;SDS011;21164;54.378;10.202;2022-08-07T06:16:26;10.48;;;5.70;;
34952;SDS011;21164;54.378;10.202;2022-08-07T06:18:56;8.82;;;5.78;;
34952;SDS011;21164;54.378;10.202;2022-08-07T06:21:24;8.70;;;5.93;;
34952;SDS011;21164;54.378;10.202;2022-08-07T06:23:51;8.63;;;5.57;;
34952;SDS011;21164;54.378;10.202;2022-08-07T06:26:16;7.03;;;5.50;;
34952;SDS011;21164;54.378;10.202;2022-08-07T06:28:52;8.50;;;5.60;;
34952;SDS011;21164;54.378;10.202;2022-08-07T06:31:20;8.23;;;5.00;;
34952;SDS011;21164;54.378;10.202;2022-08-07T06:33:46;8.27;;;5.18;;
34952;SDS011;21164;54.378;10.202;2022-08-07T06:36:12;11.02;;;5.32;;
34952;SDS011;21164;54.378;10.202;2022-08-07T06:38:38;6.68;;;4.88;;
34952;SDS011;21164;54.378;10.202;2022-08-07T06:41:06;7.95;;;5.00;;
34952;SDS011;21164;54.378;10.202;2022-08-07T06:43:36;8.88;;;5.28;;
34952;SDS011;21164;54.378;10.202;2022-08-07T06:46:03;7.07;;;4.25;;
34952;SDS011;21164;54.378;10.202;2022-08-07T06:48:29;8.57;;;4.95;;
34952;SDS011;21164;54.378;10.202;2022-08-07T06:50:56;8.75;;;4.90;;
34952;SDS011;21164;54.378;10.202;2022-08-07T06:53:24;7.43;;;5.10;;
34952;SDS011;21164;54.378;10.202;2022-08-07T06:55:51;7.85;;;5.45;;
34952;SDS011;21164;54.378;10.202;2022-08-07T06:58:19;9.02;;;5.60;;
34952;SDS011;21164;54.378;10.202;2022-08-07T07:00:46;7.93;;;5.43;;
34952;SDS011;21164;54.378;10.202;2022-08-07T07:03:13;10.13;;;5.70;;
34952;SDS011;21164;54.378;10.202;2022-08-07T07:05:40;8.52;;;5.45;;
34952;SDS011;21164;54.378;10.202;2022-08-07T07:08:06;10.00;;;5.43;;
34952;SDS011;21164;54.378;10.202;2022-08-07T07:10:33;7.63;;;5.00;;
34952;SDS011;21164;54.378;10.202;2022-08-07T07:13:06;7.82;;;5.32;;
34952;SDS011;21164;54.378;10.202;2022-08-07T07:15:35;8.57;;;5.30;;
34952;SDS011;21164;54.378;10.202;2022-08-07T07:20:42;9.88;;;6.05;;
34952;SDS011;21164;54.378;10.202;2022-08-07T07:23:17;8.65;;;6.00;;
34952;SDS011;21164;54.378;10.202;2022-08-07T07:25:44;9.13;;;5.53;;
34952;SDS011;21164;54.378;10.202;2022-08-07T07:30:41;9.07;;;5.97;;
34952;SDS011;21164;54.378;10.202;2022-08-07T07:33:13;10.13;;;6.47;;
34952;SDS011;21164;54.378;10.202;2022-08-07T07:35:45;9.02;;;6.00;;
34952;SDS011;21164;54.378;10.202;2022-08-07T07:38:12;7.90;;;6.18;;
34952;SDS011;21164;54.378;10.202;2022-08-07T07:40:42;8.55;;;6.22;;
34952;SDS011;21164;54.378;10.202;2022-08-07T07:43:09;11.35;;;6.80;;
34952;SDS011;21164;54.378;10.202;2022-08-07T07:45:38;7.60;;;5.93;;
34952;SDS011;21164;54.378;10.202;2022-08-07T07:48:05;8.93;;;5.88;;
34952;SDS011;21164;54.378;10.202;2022-08-07T07:50:34;9.15;;;5.95;;
34952;SDS011;21164;54.378;10.202;2022-08-07T07:53:01;7.82;;;5.72;;
34952;SDS011;21164;54.378;10.202;2022-08-07T07:55:27;8.02;;;5.85;;
34952;SDS011;21164;54.378;10.202;2022-08-07T07:57:54;7.70;;;5.70;;
34952;SDS011;21164;54.378;10.202;2022-08-07T08:00:23;9.02;;;5.88;;
34952;SDS011;21164;54.378;10.202;2022-08-07T08:02:49;8.52;;;6.28;;
34952;SDS011;21164;54.378;10.202;2022-08-07T08:05:19;9.52;;;6.43;;
34952;SDS011;21164;54.378;10.202;2022-08-07T08:07:47;9.75;;;5.90;;
34952;SDS011;21164;54.378;10.202;2022-08-07T08:12:40;8.40;;;5.68;;
34952;SDS011;21164;54.378;10.202;2022-08-07T08:15:06;9.07;;;5.80;;
34952;SDS011;21164;54.378;10.202;2022-08-07T08:17:35;9.20;;;5.90;;
34952;SDS011;21164;54.378;10.202;2022-08-07T08:20:03;8.55;;;5.85;;
34952;SDS011;21164;54.378;10.202;2022-08-07T08:22:32;8.90;;;5.82;;
34952;SDS011;21164;54.378;10.202;2022-08-07T08:25:21;8.75;;;5.45;;
34952;SDS011;21164;54.378;10.202;2022-08-07T08:28:10;8.18;;;5.85;;
34952;SDS011;21164;54.378;10.202;2022-08-07T08:30:39;9.80;;;6.28;;
34952;SDS011;21164;54.378;10.202;2022-08-07T08:33:07;10.43;;;5.88;;
34952;SDS011;21164;54.378;10.202;2022-08-07T08:35:40;9.02;;;5.82;;
34952;SDS011;21164;54.378;10.202;2022-08-07T08:38:07;8.13;;;5.55;;
34952;SDS011;21164;54.378;10.202;2022-08-07T08:40:39;8.85;;;6.00;;
34952;SDS011;21164;54.378;10.202;2022-08-07T08:43:16;10.07;;;5.45;;
34952;SDS011;21164;54.378;10.202;2022-08-07T08:45:53;9.20;;;6.18;;
34952;SDS011;21164;54.378;10.202;2022-08-07T08:51:30;9.48;;;5.30;;
34952;SDS011;21164;54.378;10.202;2022-08-07T08:54:09;6.50;;;5.10;;
34952;SDS011;21164;54.378;10.202;2022-08-07T08:56:48;8.27;;;5.28;;
34952;SDS011;21164;54.378;10.202;2022-08-07T08:59:19;7.63;;;5.35;;
34952;SDS011;21164;54.378;10.202;2022-08-07T09:01:55;7.22;;;4.85;;
34952;SDS011;21164;54.378;10.202;2022-08-07T09:04:27;9.05;;;4.78;;
34952;SDS011;21164;54.378;10.202;2022-08-07T09:07:17;12.30;;;6.63;;
34952;SDS011;21164;54.378;10.202;2022-08-07T09:18:05;7.70;;;4.68;;
34952;SDS011;21164;54.378;10.202;2022-08-07T09:21:32;7.68;;;4.95;;
34952;SDS011;21164;54.378;10.202;2022-08-07T09:24:02;9.32;;;5.10;;
34952;SDS011;21164;54.378;10.202;2022-08-07T09:37:50;6.82;;;4.72;;
34952;SDS011;21164;54.378;10.202;2022-08-07T09:40:56;5.88;;;4.90;;
34952;SDS011;21164;54.378;10.202;2022-08-07T10:05:22;6.40;;;4.50;;
34952;SDS011;21164;54.378;10.202;2022-08-07T10:08:27;6.07;;;4.35;;
34952;SDS011;21164;54.378;10.202;2022-08-07T10:11:12;5.68;;;4.50;;
34952;SDS011;21164;54.378;10.202;2022-08-07T10:13:49;6.18;;;4.55;;
34952;SDS011;21164;54.378;10.202;2022-08-07T10:16:40;9.07;;;5.00;;
34952;SDS011;21164;54.378;10.202;2022-08-07T10:22:31;8.68;;;4.95;;
34952;SDS011;21164;54.378;10.202;2022-08-07T10:41:52;6.70;;;3.80;;
34952;SDS011;21164;54.378;10.202;2022-08-07T10:44:33;5.90;;;3.85;;
34952;SDS011;21164;54.378;10.202;2022-08-07T10:50:00;9.52;;;4.65;;
34952;SDS011;21164;54.378;10.202;2022-08-07T10:52:43;7.47;;;4.18;;
34952;SDS011;21164;54.378;10.202;2022-08-07T10:55:18;5.50;;;4.00;;
34952;SDS011;21164;54.378;10.202;2022-08-07T11:04:01;5.60;;;4.30;;
34952;SDS011;21164;54.378;10.202;2022-08-07T11:09:56;6.88;;;4.60;;
34952;SDS011;21164;54.378;10.202;2022-08-07T11:15:07;6.00;;;4.55;;
34952;SDS011;21164;54.378;10.202;2022-08-07T11:23:36;6.40;;;4.45;;
34952;SDS011;21164;54.378;10.202;2022-08-07T11:31:21;6.78;;;4.82;;
34952;SDS011;21164;54.378;10.202;2022-08-07T11:34:00;7.53;;;4.85;;
34952;SDS011;21164;54.378;10.202;2022-08-07T11:36:56;7.18;;;4.57;;
34952;SDS011;21164;54.378;10.202;2022-08-07T11:45:05;5.90;;;4.75;;
34952;SDS011;21164;54.378;10.202;2022-08-07T11:47:53;6.60;;;4.43;;
34952;SDS011;21164;54.378;10.202;2022-08-07T11:53:49;6.38;;;4.72;;
34952;SDS011;21164;54.378;10.202;2022-08-07T11:59:05;6.25;;;4.93;;
34952;SDS011;21164;54.378;10.202;2022-08-07T12:01:58;7.13;;;5.28;;
34952;SDS011;21164;54.378;10.202;2022-08-07T12:07:05;7.18;;;4.60;;
34952;SDS011;21164;54.378;10.202;2022-08-07T12:09:48;8.05;;;5.50;;
34952;SDS011;21164;54.378;10.202;2022-08-07T12:12:27;6.47;;;4.78;;
34952;SDS011;21164;54.378;10.202;2022-08-07T12:15:22;7.80;;;5.00;;
34952;SDS011;21164;54.378;10.202;2022-08-07T12:17:52;7.03;;;5.13;;
34952;SDS011;21164;54.378;10.202;2022-08-07T12:20:45;7.25;;;4.88;;
34952;SDS011;21164;54.378;10.202;2022-08-07T12:26:43;6.10;;;4.88;;
34952;SDS011;21164;54.378;10.202;2022-08-07T12:29:30;6.20;;;4.70;;
34952;SDS011;21164;54.378;10.202;2022-08-07T12:34:51;6.22;;;4.80;;
34952;SDS011;21164;54.378;10.202;2022-08-07T12:37:19;8.60;;;4.60;;
34952;SDS011;21164;54.378;10.202;2022-08-07T12:39:46;8.45;;;4.07;;
34952;SDS011;21164;54.378;10.202;2022-08-07T12:42:15;4.82;;;4.22;;
34952;SDS011;21164;54.378;10.202;2022-08-07T12:44:46;5.60;;;4.25;;
34952;SDS011;21164;54.378;10.202;2022-08-07T12:55:41;7.57;;;3.95;;
34952;SDS011;21164;54.378;10.202;2022-08-07T12:58:14;7.32;;;4.07;;
34952;SDS011;21164;54.378;10.202;2022-08-07T13:15:25;5.10;;;3.85;;
34952;SDS011;21164;54.378;10.202;2022-08-07T13:26:00;6.43;;;4.00;;
34952;SDS011;21164;54.378;10.202;2022-08-07T13:28:38;6.60;;;4.50;;
34952;SDS011;21164;54.378;10.202;2022-08-07T13:31:11;6.35;;;4.35;;
34952;SDS011;21164;54.378;10.202;2022-08-07T13:34:20;5.32;;;3.70;;
34952;SDS011;21164;54.378;10.202;2022-08-07T13:36:57;8.52;;;4.05;;
34952;SDS011;21164;54.378;10.202;2022-08-07T13:42:12;5.65;;;4.20;;
34952;SDS011;21164;54.378;10.202;2022-08-07T13:44:40;6.88;;;4.70;;
34952;SDS011;21164;54.378;10.202;2022-08-07T13:47:08;5.47;;;4.30;;
34952;SDS011;21164;54.378;10.202;2022-08-07T13:49:36;6.68;;;3.55;;
34952;SDS011;21164;54.378;10.202;2022-08-07T13:52:07;5.90;;;3.75;;
34952;SDS011;21164;54.378;10.202;2022-08-07T13:54:35;5.15;;;3.40;;
34952;SDS011;21164;54.378;10.202;2022-08-07T13:57:05;4.43;;;3.30;;
34952;SDS011;21164;54.378;10.202;2022-08-07T13:59:36;6.68;;;3.88;;
34952;SDS011;21164;54.378;10.202;2022-08-07T14:02:10;6.07;;;3.92;;
34952;SDS011;21164;54.378;10.202;2022-08-07T14:07:07;6.90;;;4.55;;
34952;SDS011;21164;54.378;10.202;2022-08-07T14:09:35;5.53;;;4.47;;
34952;SDS011;21164;54.378;10.202;2022-08-07T14:12:04;7.63;;;4.82;;
34952;SDS011;21164;54.378;10.202;2022-08-07T14:14:39;7.55;;;4.63;;
34952;SDS011;21164;54.378;10.202;2022-08-07T14:17:08;5.85;;;4.47;;
34952;SDS011;21164;54.378;10.202;2022-08-07T14:22:17;8.30;;;4.55;;
34952;SDS011;21164;54.378;10.202;2022-08-07T14:24:50;6.10;;;4.20;;
34952;SDS011;21164;54.378;10.202;2022-08-07T14:27:40;9.63;;;3.90;;
34952;SDS011;21164;54.378;10.202;2022-08-07T14:30:07;8.07;;;3.75;;
34952;SDS011;21164;54.378;10.202;2022-08-07T14:32:37;5.72;;;3.50;;
34952;SDS011;21164;54.378;10.202;2022-08-07T14:35:07;5.32;;;3.42;;
34952;SDS011;21164;54.378;10.202;2022-08-07T14:37:35;4.75;;;3.60;;
34952;SDS011;21164;54.378;10.202;2022-08-07T14:40:03;7.88;;;3.25;;
34952;SDS011;21164;54.378;10.202;2022-08-07T14:42:30;6.00;;;3.17;;
34952;SDS011;21164;54.378;10.202;2022-08-07T14:45:00;5.25;;;3.40;;
34952;SDS011;21164;54.378;10.202;2022-08-07T14:47:29;6.15;;;3.20;;
34952;SDS011;21164;54.378;10.202;2022-08-07T14:49:56;6.53;;;3.45;;
34952;SDS011;21164;54.378;10.202;2022-08-07T14:52:22;5.55;;;3.13;;
34952;SDS011;21164;54.378;10.202;2022-08-07T14:54:49;4.38;;;3.10;;
34952;SDS011;21164;54.378;10.202;2022-08-07T14:57:15;6.03;;;3.53;;
34952;SDS011;21164;54.378;10.202;2022-08-07T14:59:42;6.15;;;3.13;;
34952;SDS011;21164;54.378;10.202;2022-08-07T15:02:13;8.15;;;3.95;;
34952;SDS011;21164;54.378;10.202;2022-08-07T15:04:41;4.75;;;3.00;;
34952;SDS011;21164;54.378;10.202;2022-08-07T15:07:09;3.22;;;2.40;;
34952;SDS011;21164;54.378;10.202;2022-08-07T15:09:40;3.70;;;2.15;;
34952;SDS011;21164;54.378;10.202;2022-08-07T15:12:09;10.45;;;4.28;;
34952;SDS011;21164;54.378;10.202;2022-08-07T15:14:40;6.57;;;2.60;;
34952;SDS011;21164;54.378;10.202;2022-08-07T15:17:14;4.90;;;2.28;;
34952;SDS011;21164;54.378;10.202;2022-08-07T15:19:47;3.88;;;2.13;;
34952;SDS011;21164;54.378;10.202;2022-08-07T15:22:22;4.38;;;2.50;;
34952;SDS011;21164;54.378;10.202;2022-08-07T15:24:50;6.47;;;2.65;;
34952;SDS011;21164;54.378;10.202;2022-08-07T15:27:19;5.45;;;2.20;;
34952;SDS011;21164;54.378;10.202;2022-08-07T15:29:52;6.95;;;2.35;;
34952;SDS011;21164;54.378;10.202;2022-08-07T15:32:23;3.25;;;2.15;;
34952;SDS011;21164;54.378;10.202;2022-08-07T15:34:50;3.63;;;2.15;;
34952;SDS011;21164;54.378;10.202;2022-08-07T15:37:28;6.50;;;2.85;;
34952;SDS011;21164;54.378;10.202;2022-08-07T15:39:57;6.50;;;2.38;;
34952;SDS011;21164;54.378;10.202;2022-08-07T15:45:02;3.78;;;2.65;;
34952;SDS011;21164;54.378;10.202;2022-08-07T15:47:33;5.28;;;3.10;;
34952;SDS011;21164;54.378;10.202;2022-08-07T15:50:00;5.70;;;2.85;;
34952;SDS011;21164;54.378;10.202;2022-08-07T15:52:28;3.38;;;2.40;;
34952;SDS011;21164;54.378;10.202;2022-08-07T15:54:54;6.55;;;2.67;;
34952;SDS011;21164;54.378;10.202;2022-08-07T15:57:25;5.70;;;2.72;;
34952;SDS011;21164;54.378;10.202;2022-08-07T15:59:53;3.97;;;2.60;;
34952;SDS011;21164;54.378;10.202;2022-08-07T16:02:24;7.18;;;2.53;;
34952;SDS011;21164;54.378;10.202;2022-08-07T16:04:57;3.42;;;2.30;;
34952;SDS011;21164;54.378;10.202;2022-08-07T16:07:26;4.28;;;2.15;;
34952;SDS011;21164;54.378;10.202;2022-08-07T16:10:12;4.18;;;2.38;;
34952;SDS011;21164;54.378;10.202;2022-08-07T16:12:50;2.95;;;1.80;;
34952;SDS011;21164;54.378;10.202;2022-08-07T16:33:50;5.90;;;2.85;;
34952;SDS011;21164;54.378;10.202;2022-08-07T16:36:22;4.75;;;2.40;;
34952;SDS011;21164;54.378;10.202;2022-08-07T16:50:10;4.60;;;2.30;;
34952;SDS011;21164;54.378;10.202;2022-08-07T16:53:00;3.30;;;2.17;;
34952;SDS011;21164;54.378;10.202;2022-08-07T16:55:55;2.92;;;2.10;;
34952;SDS011;21164;54.378;10.202;2022-08-07T17:04:36;3.90;;;2.13;;
34952;SDS011;21164;54.378;10.202;2022-08-07T17:09:45;3.42;;;2.03;;
34952;SDS011;21164;54.378;10.202;2022-08-07T17:12:23;4.72;;;2.03;;
34952;SDS011;21164;54.378;10.202;2022-08-07T17:22:56;3.08;;;1.67;;
34952;SDS011;21164;54.378;10.202;2022-08-07T17:25:52;3.15;;;1.60;;
34952;SDS011;21164;54.378;10.202;2022-08-07T17:29:25;2.97;;;1.85;;
34952;SDS011;21164;54.378;10.202;2022-08-07T17:31:38;4.03;;;1.85;;
34952;SDS011;21164;54.378;10.202;2022-08-07T17:34:31;4.05;;;2.42;;
34952;SDS011;21164;54.378;10.202;2022-08-07T17:37:23;5.07;;;2.10;;
34952;SDS011;21164;54.378;10.202;2022-08-07T17:39:56;3.33;;;2.38;;
34952;SDS011;21164;54.378;10.202;2022-08-07T17:42:37;3.13;;;2.28;;
34952;SDS011;21164;54.378;10.202;2022-08-07T17:45:36;4.30;;;2.30;;
34952;SDS011;21164;54.378;10.202;2022-08-07T17:48:14;6.82;;;2.28;;
34952;SDS011;21164;54.378;10.202;2022-08-07T17:50:51;3.50;;;2.10;;
34952;SDS011;21164;54.378;10.202;2022-08-07T17:56:30;2.83;;;1.60;;
34952;SDS011;21164;54.378;10.202;2022-08-07T17:59:07;3.35;;;2.28;;
34952;SDS011;21164;54.378;10.202;2022-08-07T18:14:45;3.08;;;1.27;;
34952;SDS011;21164;54.378;10.202;2022-08-07T18:20:41;3.40;;;1.60;;
34952;SDS011;21164;54.378;10.202;2022-08-07T18:23:13;4.35;;;1.90;;
34952;SDS011;21164;54.378;10.202;2022-08-07T18:25:49;2.95;;;1.42;;
34952;SDS011;21164;54.378;10.202;2022-08-07T18:29:28;3.42;;;1.48;;
34952;SDS011;21164;54.378;10.202;2022-08-07T18:31:47;4.72;;;1.60;;
34952;SDS011;21164;54.378;10.202;2022-08-07T18:34:21;4.50;;;1.80;;
34952;SDS011;21164;54.378;10.202;2022-08-07T18:37:28;4.65;;;1.60;;
34952;SDS011;21164;54.378;10.202;2022-08-07T18:45:47;2.88;;;1.75;;
34952;SDS011;21164;54.378;10.202;2022-08-07T19:10:19;3.10;;;1.80;;
34952;SDS011;21164;54.378;10.202;2022-08-07T19:15:50;5.07;;;2.40;;
34952;SDS011;21164;54.378;10.202;2022-08-07T19:21:50;3.67;;;2.20;;
34952;SDS011;21164;54.378;10.202;2022-08-07T19:24:03;3.10;;;2.15;;
34952;SDS011;21164;54.378;10.202;2022-08-07T19:26:35;2.92;;;2.10;;
34952;SDS011;21164;54.378;10.202;2022-08-07T19:29:12;4.72;;;2.13;;
34952;SDS011;21164;54.378;10.202;2022-08-07T19:31:39;5.68;;;2.50;;
34952;SDS011;21164;54.378;10.202;2022-08-07T19:34:11;3.70;;;2.05;;
34952;SDS011;21164;54.378;10.202;2022-08-07T19:36:41;5.78;;;2.28;;
34952;SDS011;21164;54.378;10.202;2022-08-07T19:39:11;3.53;;;2.28;;
34952;SDS011;21164;54.378;10.202;2022-08-07T19:41:41;4.00;;;2.30;;
34952;SDS011;21164;54.378;10.202;2022-08-07T19:44:08;3.92;;;2.20;;
34952;SDS011;21164;54.378;10.202;2022-08-07T19:46:40;4.55;;;2.20;;
34952;SDS011;21164;54.378;10.202;2022-08-07T19:49:13;4.72;;;2.08;;